sensor_id;sensor_type;location;lat;lon;timestamp;temperature;humidity
50955;DHT22;36966;48.064;-0.792;2023-09-08T00:00:53;29.70;54.20
50955;DHT22;36966;48.064;-0.792;2023-09-08T00:03:12;29.70;54.20
50955;DHT22;36966;48.064;-0.792;2023-09-08T00:05:31;29.70;54.20
50955;DHT22;36966;48.064;-0.792;2023-09-08T00:07:50;29.70;54.20
50955;DHT22;36966;48.064;-0.792;2023-09-08T00:10:10;29.70;54.20
50955;DHT22;36966;48.064;-0.792;2023-09-08T00:12:31;29.70;54.20
50955;DHT22;36966;48.064;-0.792;2023-09-08T00:14:50;29.60;54.30
50955;DHT22;36966;48.064;-0.792;2023-09-08T00:17:09;29.60;54.30
50955;DHT22;36966;48.064;-0.792;2023-09-08T00:19:29;29.60;54.30
50955;DHT22;36966;48.064;-0.792;2023-09-08T00:21:48;29.60;54.30
50955;DHT22;36966;48.064;-0.792;2023-09-08T00:24:08;29.60;54.30
50955;DHT22;36966;48.064;-0.792;2023-09-08T00:26:27;29.60;54.40
50955;DHT22;36966;48.064;-0.792;2023-09-08T00:28:47;29.60;54.50
50955;DHT22;36966;48.064;-0.792;2023-09-08T00:31:06;29.50;54.40
50955;DHT22;36966;48.064;-0.792;2023-09-08T00:33:26;29.60;54.50
50955;DHT22;36966;48.064;-0.792;2023-09-08T00:35:48;29.60;54.50
50955;DHT22;36966;48.064;-0.792;2023-09-08T00:38:07;29.50;54.50
50955;DHT22;36966;48.064;-0.792;2023-09-08T00:40:27;29.50;54.50
50955;DHT22;36966;48.064;-0.792;2023-09-08T00:42:47;29.50;54.60
50955;DHT22;36966;48.064;-0.792;2023-09-08T00:45:07;29.50;54.50
50955;DHT22;36966;48.064;-0.792;2023-09-08T00:47:26;29.50;54.60
50955;DHT22;36966;48.064;-0.792;2023-09-08T00:49:46;29.50;54.50
50955;DHT22;36966;48.064;-0.792;2023-09-08T00:52:10;29.50;54.60
50955;DHT22;36966;48.064;-0.792;2023-09-08T00:54:29;29.50;54.60
50955;DHT22;36966;48.064;-0.792;2023-09-08T00:56:51;29.50;54.60
50955;DHT22;36966;48.064;-0.792;2023-09-08T00:59:14;29.50;54.60
50955;DHT22;36966;48.064;-0.792;2023-09-08T01:01:34;29.50;54.60
50955;DHT22;36966;48.064;-0.792;2023-09-08T01:03:53;29.40;54.60
50955;DHT22;36966;48.064;-0.792;2023-09-08T01:06:12;29.50;54.60
50955;DHT22;36966;48.064;-0.792;2023-09-08T01:08:32;29.40;54.60
50955;DHT22;36966;48.064;-0.792;2023-09-08T01:10:52;29.40;54.60
50955;DHT22;36966;48.064;-0.792;2023-09-08T01:13:11;29.40;54.60
50955;DHT22;36966;48.064;-0.792;2023-09-08T01:15:31;29.40;54.60
50955;DHT22;36966;48.064;-0.792;2023-09-08T01:17:50;29.40;54.70
50955;DHT22;36966;48.064;-0.792;2023-09-08T01:20:15;29.40;54.70
50955;DHT22;36966;48.064;-0.792;2023-09-08T01:27:32;29.30;54.70
50955;DHT22;36966;48.064;-0.792;2023-09-08T01:29:53;29.40;54.70
50955;DHT22;36966;48.064;-0.792;2023-09-08T01:32:13;29.40;54.70
50955;DHT22;36966;48.064;-0.792;2023-09-08T01:34:32;29.30;54.70
50955;DHT22;36966;48.064;-0.792;2023-09-08T01:36:52;29.30;54.70
50955;DHT22;36966;48.064;-0.792;2023-09-08T01:39:12;29.30;54.70
50955;DHT22;36966;48.064;-0.792;2023-09-08T01:41:31;29.30;54.70
50955;DHT22;36966;48.064;-0.792;2023-09-08T01:43:51;29.30;54.70
50955;DHT22;36966;48.064;-0.792;2023-09-08T01:46:10;29.30;54.70
50955;DHT22;36966;48.064;-0.792;2023-09-08T01:48:29;29.30;54.70
50955;DHT22;36966;48.064;-0.792;2023-09-08T01:50:49;29.30;54.70
50955;DHT22;36966;48.064;-0.792;2023-09-08T01:53:08;29.30;54.70
50955;DHT22;36966;48.064;-0.792;2023-09-08T01:55:27;29.30;54.80
50955;DHT22;36966;48.064;-0.792;2023-09-08T01:57:47;29.30;54.80
50955;DHT22;36966;48.064;-0.792;2023-09-08T02:00:06;29.30;54.70
50955;DHT22;36966;48.064;-0.792;2023-09-08T02:02:26;29.30;54.80
50955;DHT22;36966;48.064;-0.792;2023-09-08T02:04:45;29.30;54.80
50955;DHT22;36966;48.064;-0.792;2023-09-08T02:07:04;29.30;54.80
50955;DHT22;36966;48.064;-0.792;2023-09-08T02:09:31;29.30;54.70
50955;DHT22;36966;48.064;-0.792;2023-09-08T02:11:50;29.30;54.80
50955;DHT22;36966;48.064;-0.792;2023-09-08T02:14:09;29.30;54.80
50955;DHT22;36966;48.064;-0.792;2023-09-08T02:16:29;29.20;54.80
50955;DHT22;36966;48.064;-0.792;2023-09-08T02:18:50;29.20;54.80
50955;DHT22;36966;48.064;-0.792;2023-09-08T02:21:09;29.20;54.80
50955;DHT22;36966;48.064;-0.792;2023-09-08T02:23:28;29.30;54.80
50955;DHT22;36966;48.064;-0.792;2023-09-08T02:25:48;29.20;54.80
50955;DHT22;36966;48.064;-0.792;2023-09-08T02:28:07;29.20;54.80
50955;DHT22;36966;48.064;-0.792;2023-09-08T02:30:29;29.20;54.80
50955;DHT22;36966;48.064;-0.792;2023-09-08T02:32:48;29.20;54.90
50955;DHT22;36966;48.064;-0.792;2023-09-08T02:35:07;29.20;54.80
50955;DHT22;36966;48.064;-0.792;2023-09-08T02:37:26;29.20;54.80
50955;DHT22;36966;48.064;-0.792;2023-09-08T02:39:45;29.20;54.90
50955;DHT22;36966;48.064;-0.792;2023-09-08T02:42:05;29.20;54.90
50955;DHT22;36966;48.064;-0.792;2023-09-08T02:44:24;29.20;54.90
50955;DHT22;36966;48.064;-0.792;2023-09-08T02:46:45;29.20;54.90
50955;DHT22;36966;48.064;-0.792;2023-09-08T02:49:05;29.20;54.90
50955;DHT22;36966;48.064;-0.792;2023-09-08T02:51:25;29.20;54.90
50955;DHT22;36966;48.064;-0.792;2023-09-08T02:53:44;29.20;54.90
50955;DHT22;36966;48.064;-0.792;2023-09-08T02:56:04;29.10;54.80
50955;DHT22;36966;48.064;-0.792;2023-09-08T02:58:25;29.10;54.90
50955;DHT22;36966;48.064;-0.792;2023-09-08T03:00:44;29.10;54.90
50955;DHT22;36966;48.064;-0.792;2023-09-08T03:03:04;29.10;54.90
50955;DHT22;36966;48.064;-0.792;2023-09-08T03:05:23;29.10;54.90
50955;DHT22;36966;48.064;-0.792;2023-09-08T03:07:42;29.10;54.90
50955;DHT22;36966;48.064;-0.792;2023-09-08T03:10:02;29.10;54.80
50955;DHT22;36966;48.064;-0.792;2023-09-08T03:12:22;29.10;54.90
50955;DHT22;36966;48.064;-0.792;2023-09-08T03:14:41;29.10;54.90
50955;DHT22;36966;48.064;-0.792;2023-09-08T03:17:00;29.10;54.90
50955;DHT22;36966;48.064;-0.792;2023-09-08T03:19:20;29.10;54.90
50955;DHT22;36966;48.064;-0.792;2023-09-08T03:21:39;29.00;54.90
50955;DHT22;36966;48.064;-0.792;2023-09-08T03:23:58;29.10;54.90
50955;DHT22;36966;48.064;-0.792;2023-09-08T03:26:18;29.00;54.90
50955;DHT22;36966;48.064;-0.792;2023-09-08T03:28:37;29.10;54.90
50955;DHT22;36966;48.064;-0.792;2023-09-08T03:30:57;29.00;54.90
50955;DHT22;36966;48.064;-0.792;2023-09-08T03:33:16;29.00;54.80
50955;DHT22;36966;48.064;-0.792;2023-09-08T03:35:36;29.00;54.90
50955;DHT22;36966;48.064;-0.792;2023-09-08T03:37:55;29.00;54.90
50955;DHT22;36966;48.064;-0.792;2023-09-08T03:40:15;29.00;54.80
50955;DHT22;36966;48.064;-0.792;2023-09-08T03:42:34;29.00;54.90
50955;DHT22;36966;48.064;-0.792;2023-09-08T03:44:54;29.00;54.90
50955;DHT22;36966;48.064;-0.792;2023-09-08T03:47:13;29.00;54.90
50955;DHT22;36966;48.064;-0.792;2023-09-08T03:49:32;29.00;54.90
50955;DHT22;36966;48.064;-0.792;2023-09-08T03:51:52;28.90;55.30
50955;DHT22;36966;48.064;-0.792;2023-09-08T03:54:11;28.90;55.40
50955;DHT22;36966;48.064;-0.792;2023-09-08T03:56:30;28.90;55.40
50955;DHT22;36966;48.064;-0.792;2023-09-08T03:58:49;28.90;55.30
50955;DHT22;36966;48.064;-0.792;2023-09-08T04:01:09;28.90;55.30
50955;DHT22;36966;48.064;-0.792;2023-09-08T04:03:28;28.90;55.30
50955;DHT22;36966;48.064;-0.792;2023-09-08T04:05:47;28.90;55.20
50955;DHT22;36966;48.064;-0.792;2023-09-08T04:08:06;28.90;55.20
50955;DHT22;36966;48.064;-0.792;2023-09-08T04:10:26;28.90;55.20
50955;DHT22;36966;48.064;-0.792;2023-09-08T04:12:45;28.90;55.20
50955;DHT22;36966;48.064;-0.792;2023-09-08T04:15:04;28.90;55.20
50955;DHT22;36966;48.064;-0.792;2023-09-08T04:17:24;28.80;55.20
50955;DHT22;36966;48.064;-0.792;2023-09-08T04:19:43;28.80;55.10
50955;DHT22;36966;48.064;-0.792;2023-09-08T04:22:02;28.80;55.10
50955;DHT22;36966;48.064;-0.792;2023-09-08T04:24:21;28.80;55.10
50955;DHT22;36966;48.064;-0.792;2023-09-08T04:26:41;28.80;55.10
50955;DHT22;36966;48.064;-0.792;2023-09-08T04:29:00;28.80;55.20
50955;DHT22;36966;48.064;-0.792;2023-09-08T04:31:20;28.80;55.10
50955;DHT22;36966;48.064;-0.792;2023-09-08T04:33:41;28.80;55.10
50955;DHT22;36966;48.064;-0.792;2023-09-08T04:36:00;28.80;55.10
50955;DHT22;36966;48.064;-0.792;2023-09-08T04:38:19;28.80;55.10
50955;DHT22;36966;48.064;-0.792;2023-09-08T04:40:45;28.80;55.10
50955;DHT22;36966;48.064;-0.792;2023-09-08T04:43:05;28.80;55.10
50955;DHT22;36966;48.064;-0.792;2023-09-08T04:45:25;28.80;55.10
50955;DHT22;36966;48.064;-0.792;2023-09-08T04:47:44;28.80;55.10
50955;DHT22;36966;48.064;-0.792;2023-09-08T04:50:05;28.70;55.10
50955;DHT22;36966;48.064;-0.792;2023-09-08T04:52:25;28.70;55.10
50955;DHT22;36966;48.064;-0.792;2023-09-08T04:54:44;28.70;55.10
50955;DHT22;36966;48.064;-0.792;2023-09-08T04:57:04;28.70;55.10
50955;DHT22;36966;48.064;-0.792;2023-09-08T04:59:24;28.70;55.10
50955;DHT22;36966;48.064;-0.792;2023-09-08T05:01:44;28.70;55.10
50955;DHT22;36966;48.064;-0.792;2023-09-08T05:04:03;28.70;55.10
50955;DHT22;36966;48.064;-0.792;2023-09-08T05:06:23;28.70;55.10
50955;DHT22;36966;48.064;-0.792;2023-09-08T05:08:42;28.70;55.10
50955;DHT22;36966;48.064;-0.792;2023-09-08T05:11:03;28.70;55.10
50955;DHT22;36966;48.064;-0.792;2023-09-08T05:13:22;28.70;55.10
50955;DHT22;36966;48.064;-0.792;2023-09-08T05:15:45;28.70;55.10
50955;DHT22;36966;48.064;-0.792;2023-09-08T05:18:07;28.70;55.10
50955;DHT22;36966;48.064;-0.792;2023-09-08T05:20:26;28.70;55.10
50955;DHT22;36966;48.064;-0.792;2023-09-08T05:22:46;28.70;55.20
50955;DHT22;36966;48.064;-0.792;2023-09-08T05:25:05;28.70;55.20
50955;DHT22;36966;48.064;-0.792;2023-09-08T05:27:24;28.70;55.20
50955;DHT22;36966;48.064;-0.792;2023-09-08T05:29:43;28.70;55.20
50955;DHT22;36966;48.064;-0.792;2023-09-08T05:32:03;28.60;55.20
50955;DHT22;36966;48.064;-0.792;2023-09-08T05:34:22;28.70;55.20
50955;DHT22;36966;48.064;-0.792;2023-09-08T05:36:41;28.70;55.20
50955;DHT22;36966;48.064;-0.792;2023-09-08T05:39:01;28.60;55.20
50955;DHT22;36966;48.064;-0.792;2023-09-08T05:41:21;28.60;55.20
50955;DHT22;36966;48.064;-0.792;2023-09-08T05:43:40;28.60;55.20
50955;DHT22;36966;48.064;-0.792;2023-09-08T05:45:59;28.60;55.20
50955;DHT22;36966;48.064;-0.792;2023-09-08T05:48:18;28.60;55.20
50955;DHT22;36966;48.064;-0.792;2023-09-08T05:50:38;28.60;55.20
50955;DHT22;36966;48.064;-0.792;2023-09-08T05:52:57;28.60;55.20
50955;DHT22;36966;48.064;-0.792;2023-09-08T05:55:16;28.60;55.20
50955;DHT22;36966;48.064;-0.792;2023-09-08T05:57:36;28.60;55.20
50955;DHT22;36966;48.064;-0.792;2023-09-08T05:59:55;28.60;55.20
50955;DHT22;36966;48.064;-0.792;2023-09-08T06:02:15;28.60;55.20
50955;DHT22;36966;48.064;-0.792;2023-09-08T06:04:34;28.50;55.30
50955;DHT22;36966;48.064;-0.792;2023-09-08T06:06:53;28.50;55.20
50955;DHT22;36966;48.064;-0.792;2023-09-08T06:09:13;28.50;55.20
50955;DHT22;36966;48.064;-0.792;2023-09-08T06:11:34;28.60;55.20
50955;DHT22;36966;48.064;-0.792;2023-09-08T06:13:53;28.60;55.20
50955;DHT22;36966;48.064;-0.792;2023-09-08T06:16:17;28.60;55.30
50955;DHT22;36966;48.064;-0.792;2023-09-08T06:18:37;28.60;55.20
50955;DHT22;36966;48.064;-0.792;2023-09-08T06:20:59;28.50;55.20
50955;DHT22;36966;48.064;-0.792;2023-09-08T06:23:19;28.50;55.20
50955;DHT22;36966;48.064;-0.792;2023-09-08T06:25:39;28.50;55.30
50955;DHT22;36966;48.064;-0.792;2023-09-08T06:27:58;28.50;55.30
50955;DHT22;36966;48.064;-0.792;2023-09-08T06:30:18;28.60;55.30
50955;DHT22;36966;48.064;-0.792;2023-09-08T06:32:37;28.50;55.30
50955;DHT22;36966;48.064;-0.792;2023-09-08T06:34:57;28.50;55.30
50955;DHT22;36966;48.064;-0.792;2023-09-08T06:37:16;28.50;55.40
50955;DHT22;36966;48.064;-0.792;2023-09-08T06:39:35;28.50;55.40
50955;DHT22;36966;48.064;-0.792;2023-09-08T06:41:55;28.50;55.40
50955;DHT22;36966;48.064;-0.792;2023-09-08T06:44:14;28.50;55.50
50955;DHT22;36966;48.064;-0.792;2023-09-08T06:46:33;28.60;55.50
50955;DHT22;36966;48.064;-0.792;2023-09-08T06:48:52;28.60;55.50
50955;DHT22;36966;48.064;-0.792;2023-09-08T06:51:12;28.60;55.50
50955;DHT22;36966;48.064;-0.792;2023-09-08T06:53:31;28.60;55.50
50955;DHT22;36966;48.064;-0.792;2023-09-08T06:55:51;28.60;55.60
50955;DHT22;36966;48.064;-0.792;2023-09-08T06:58:10;28.50;55.60
50955;DHT22;36966;48.064;-0.792;2023-09-08T07:00:31;28.60;55.70
50955;DHT22;36966;48.064;-0.792;2023-09-08T07:02:50;28.60;55.80
50955;DHT22;36966;48.064;-0.792;2023-09-08T07:05:09;28.60;55.80
50955;DHT22;36966;48.064;-0.792;2023-09-08T07:07:29;28.60;55.70
50955;DHT22;36966;48.064;-0.792;2023-09-08T07:09:48;28.60;55.80
50955;DHT22;36966;48.064;-0.792;2023-09-08T07:12:07;28.60;55.80
50955;DHT22;36966;48.064;-0.792;2023-09-08T07:14:27;28.60;55.80
50955;DHT22;36966;48.064;-0.792;2023-09-08T07:16:46;28.60;55.80
50955;DHT22;36966;48.064;-0.792;2023-09-08T07:19:05;28.70;56.00
50955;DHT22;36966;48.064;-0.792;2023-09-08T07:21:24;28.70;56.00
50955;DHT22;36966;48.064;-0.792;2023-09-08T07:23:44;28.70;56.10
50955;DHT22;36966;48.064;-0.792;2023-09-08T07:26:03;28.70;56.00
50955;DHT22;36966;48.064;-0.792;2023-09-08T07:28:23;28.70;55.90
50955;DHT22;36966;48.064;-0.792;2023-09-08T07:30:42;28.70;55.80
50955;DHT22;36966;48.064;-0.792;2023-09-08T07:33:01;28.80;55.80
50955;DHT22;36966;48.064;-0.792;2023-09-08T07:35:23;28.80;55.70
50955;DHT22;36966;48.064;-0.792;2023-09-08T07:37:43;28.80;55.70
50955;DHT22;36966;48.064;-0.792;2023-09-08T07:40:02;28.80;55.60
50955;DHT22;36966;48.064;-0.792;2023-09-08T07:42:22;28.90;55.60
50955;DHT22;36966;48.064;-0.792;2023-09-08T07:44:42;28.90;55.50
50955;DHT22;36966;48.064;-0.792;2023-09-08T07:47:01;28.90;55.50
50955;DHT22;36966;48.064;-0.792;2023-09-08T07:49:21;28.90;55.50
50955;DHT22;36966;48.064;-0.792;2023-09-08T07:51:40;29.00;55.40
50955;DHT22;36966;48.064;-0.792;2023-09-08T07:53:59;29.00;55.40
50955;DHT22;36966;48.064;-0.792;2023-09-08T07:56:20;29.00;55.40
50955;DHT22;36966;48.064;-0.792;2023-09-08T07:58:40;29.00;55.40
50955;DHT22;36966;48.064;-0.792;2023-09-08T08:00:59;29.00;55.30
50955;DHT22;36966;48.064;-0.792;2023-09-08T08:03:19;29.00;55.30
50955;DHT22;36966;48.064;-0.792;2023-09-08T08:05:38;29.00;55.20
50955;DHT22;36966;48.064;-0.792;2023-09-08T08:07:57;29.00;55.20
50955;DHT22;36966;48.064;-0.792;2023-09-08T08:10:17;29.10;55.10
50955;DHT22;36966;48.064;-0.792;2023-09-08T08:12:37;29.10;55.00
50955;DHT22;36966;48.064;-0.792;2023-09-08T08:14:56;29.20;55.00
50955;DHT22;36966;48.064;-0.792;2023-09-08T08:17:15;29.20;55.00
50955;DHT22;36966;48.064;-0.792;2023-09-08T08:19:36;29.20;54.90
50955;DHT22;36966;48.064;-0.792;2023-09-08T08:21:55;29.20;54.90
50955;DHT22;36966;48.064;-0.792;2023-09-08T08:24:16;29.20;54.90
50955;DHT22;36966;48.064;-0.792;2023-09-08T08:26:35;29.20;54.90
50955;DHT22;36966;48.064;-0.792;2023-09-08T08:28:54;29.20;54.90
50955;DHT22;36966;48.064;-0.792;2023-09-08T08:31:14;29.20;54.90
50955;DHT22;36966;48.064;-0.792;2023-09-08T08:33:33;29.20;54.90
50955;DHT22;36966;48.064;-0.792;2023-09-08T08:35:53;29.20;54.90
50955;DHT22;36966;48.064;-0.792;2023-09-08T08:38:15;29.20;54.90
50955;DHT22;36966;48.064;-0.792;2023-09-08T08:40:37;29.30;54.90
50955;DHT22;36966;48.064;-0.792;2023-09-08T08:42:57;29.30;54.90
50955;DHT22;36966;48.064;-0.792;2023-09-08T08:45:17;29.30;54.90
50955;DHT22;36966;48.064;-0.792;2023-09-08T08:47:38;29.30;55.00
50955;DHT22;36966;48.064;-0.792;2023-09-08T08:49:59;29.30;54.90
50955;DHT22;36966;48.064;-0.792;2023-09-08T08:52:18;29.30;54.90
50955;DHT22;36966;48.064;-0.792;2023-09-08T08:54:39;29.40;54.90
50955;DHT22;36966;48.064;-0.792;2023-09-08T08:56:58;29.40;54.80
50955;DHT22;36966;48.064;-0.792;2023-09-08T08:59:18;29.40;54.80
50955;DHT22;36966;48.064;-0.792;2023-09-08T09:01:38;29.40;54.80
50955;DHT22;36966;48.064;-0.792;2023-09-08T09:03:58;29.50;54.80
50955;DHT22;36966;48.064;-0.792;2023-09-08T09:06:17;29.50;54.70
50955;DHT22;36966;48.064;-0.792;2023-09-08T09:08:37;29.50;54.80
50955;DHT22;36966;48.064;-0.792;2023-09-08T09:10:56;29.60;54.90
50955;DHT22;36966;48.064;-0.792;2023-09-08T09:13:16;29.60;54.80
50955;DHT22;36966;48.064;-0.792;2023-09-08T09:15:35;29.70;54.70
50955;DHT22;36966;48.064;-0.792;2023-09-08T09:20:23;29.70;54.70
50955;DHT22;36966;48.064;-0.792;2023-09-08T09:22:43;29.80;54.60
50955;DHT22;36966;48.064;-0.792;2023-09-08T09:25:03;29.80;54.50
50955;DHT22;36966;48.064;-0.792;2023-09-08T09:27:26;29.90;54.30
50955;DHT22;36966;48.064;-0.792;2023-09-08T09:29:50;30.00;54.40
50955;DHT22;36966;48.064;-0.792;2023-09-08T09:32:09;30.10;54.10
50955;DHT22;36966;48.064;-0.792;2023-09-08T09:34:28;30.10;54.10
50955;DHT22;36966;48.064;-0.792;2023-09-08T09:36:49;30.10;54.10
50955;DHT22;36966;48.064;-0.792;2023-09-08T09:39:09;30.20;53.90
50955;DHT22;36966;48.064;-0.792;2023-09-08T09:41:28;30.20;53.90
50955;DHT22;36966;48.064;-0.792;2023-09-08T09:43:49;30.30;53.90
50955;DHT22;36966;48.064;-0.792;2023-09-08T09:46:08;30.40;53.60
50955;DHT22;36966;48.064;-0.792;2023-09-08T09:48:28;30.40;53.50
50955;DHT22;36966;48.064;-0.792;2023-09-08T09:50:47;30.40;53.50
50955;DHT22;36966;48.064;-0.792;2023-09-08T09:53:09;30.40;53.60
50955;DHT22;36966;48.064;-0.792;2023-09-08T09:55:30;30.40;53.50
50955;DHT22;36966;48.064;-0.792;2023-09-08T09:57:49;30.50;53.40
50955;DHT22;36966;48.064;-0.792;2023-09-08T10:00:10;30.50;53.40
50955;DHT22;36966;48.064;-0.792;2023-09-08T10:02:30;30.50;53.30
50955;DHT22;36966;48.064;-0.792;2023-09-08T10:04:50;30.50;53.20
50955;DHT22;36966;48.064;-0.792;2023-09-08T10:07:10;30.40;53.30
50955;DHT22;36966;48.064;-0.792;2023-09-08T10:09:29;30.40;53.40
50955;DHT22;36966;48.064;-0.792;2023-09-08T10:11:48;30.40;53.50
50955;DHT22;36966;48.064;-0.792;2023-09-08T10:14:08;30.30;53.60
50955;DHT22;36966;48.064;-0.792;2023-09-08T10:16:32;30.30;53.60
50955;DHT22;36966;48.064;-0.792;2023-09-08T10:18:53;30.30;53.70
50955;DHT22;36966;48.064;-0.792;2023-09-08T10:21:13;30.30;53.70
50955;DHT22;36966;48.064;-0.792;2023-09-08T10:23:42;30.20;53.80
50955;DHT22;36966;48.064;-0.792;2023-09-08T10:26:03;30.20;53.80
50955;DHT22;36966;48.064;-0.792;2023-09-08T10:28:25;30.20;53.90
50955;DHT22;36966;48.064;-0.792;2023-09-08T10:30:44;30.20;54.00
50955;DHT22;36966;48.064;-0.792;2023-09-08T10:33:04;30.20;54.10
50955;DHT22;36966;48.064;-0.792;2023-09-08T10:35:25;30.10;54.20
50955;DHT22;36966;48.064;-0.792;2023-09-08T10:37:45;30.10;54.10
50955;DHT22;36966;48.064;-0.792;2023-09-08T10:40:20;30.10;54.20
50955;DHT22;36966;48.064;-0.792;2023-09-08T10:42:40;30.10;54.10
50955;DHT22;36966;48.064;-0.792;2023-09-08T10:45:00;30.10;54.20
50955;DHT22;36966;48.064;-0.792;2023-09-08T10:47:26;30.20;54.10
50955;DHT22;36966;48.064;-0.792;2023-09-08T10:49:49;30.10;54.10
50955;DHT22;36966;48.064;-0.792;2023-09-08T10:52:12;30.20;54.10
50955;DHT22;36966;48.064;-0.792;2023-09-08T10:54:43;30.20;54.10
50955;DHT22;36966;48.064;-0.792;2023-09-08T10:57:06;30.20;54.10
50955;DHT22;36966;48.064;-0.792;2023-09-08T10:59:28;30.20;54.00
50955;DHT22;36966;48.064;-0.792;2023-09-08T11:01:48;30.20;54.00
50955;DHT22;36966;48.064;-0.792;2023-09-08T11:04:07;30.30;54.00
50955;DHT22;36966;48.064;-0.792;2023-09-08T11:06:29;30.30;53.90
50955;DHT22;36966;48.064;-0.792;2023-09-08T11:08:49;30.20;53.80
50955;DHT22;36966;48.064;-0.792;2023-09-08T11:11:12;30.30;53.70
50955;DHT22;36966;48.064;-0.792;2023-09-08T11:13:32;30.30;53.70
50955;DHT22;36966;48.064;-0.792;2023-09-08T11:15:51;30.30;53.70
50955;DHT22;36966;48.064;-0.792;2023-09-08T11:18:11;30.30;53.80
50955;DHT22;36966;48.064;-0.792;2023-09-08T11:20:30;30.30;53.90
50955;DHT22;36966;48.064;-0.792;2023-09-08T11:22:49;30.30;53.90
50955;DHT22;36966;48.064;-0.792;2023-09-08T11:25:09;30.30;54.10
50955;DHT22;36966;48.064;-0.792;2023-09-08T11:27:30;30.30;54.10
50955;DHT22;36966;48.064;-0.792;2023-09-08T11:29:50;30.30;54.00
50955;DHT22;36966;48.064;-0.792;2023-09-08T11:32:10;30.30;54.00
50955;DHT22;36966;48.064;-0.792;2023-09-08T11:34:29;30.30;53.90
50955;DHT22;36966;48.064;-0.792;2023-09-08T11:36:49;30.30;54.00
50955;DHT22;36966;48.064;-0.792;2023-09-08T11:39:09;30.20;54.00
50955;DHT22;36966;48.064;-0.792;2023-09-08T11:41:29;30.30;54.00
50955;DHT22;36966;48.064;-0.792;2023-09-08T11:43:49;30.30;54.00
50955;DHT22;36966;48.064;-0.792;2023-09-08T11:46:08;30.20;54.10
50955;DHT22;36966;48.064;-0.792;2023-09-08T11:48:29;30.30;54.10
50955;DHT22;36966;48.064;-0.792;2023-09-08T11:50:52;30.30;54.10
50955;DHT22;36966;48.064;-0.792;2023-09-08T11:53:12;30.30;54.10
50955;DHT22;36966;48.064;-0.792;2023-09-08T11:55:31;30.30;53.90
50955;DHT22;36966;48.064;-0.792;2023-09-08T11:57:53;30.30;53.90
50955;DHT22;36966;48.064;-0.792;2023-09-08T12:00:16;30.30;53.80
50955;DHT22;36966;48.064;-0.792;2023-09-08T12:02:37;30.30;53.70
50955;DHT22;36966;48.064;-0.792;2023-09-08T12:04:56;30.30;53.60
50955;DHT22;36966;48.064;-0.792;2023-09-08T12:07:16;30.30;53.70
50955;DHT22;36966;48.064;-0.792;2023-09-08T12:09:38;30.30;53.60
50955;DHT22;36966;48.064;-0.792;2023-09-08T12:11:57;30.30;53.60
50955;DHT22;36966;48.064;-0.792;2023-09-08T12:14:19;30.30;53.70
50955;DHT22;36966;48.064;-0.792;2023-09-08T12:16:38;30.30;53.80
50955;DHT22;36966;48.064;-0.792;2023-09-08T12:18:58;30.30;53.70
50955;DHT22;36966;48.064;-0.792;2023-09-08T12:21:17;30.30;53.80
50955;DHT22;36966;48.064;-0.792;2023-09-08T12:23:49;30.30;53.70
50955;DHT22;36966;48.064;-0.792;2023-09-08T12:26:09;30.30;53.70
50955;DHT22;36966;48.064;-0.792;2023-09-08T12:28:30;30.20;53.80
50955;DHT22;36966;48.064;-0.792;2023-09-08T12:30:49;30.20;53.80
50955;DHT22;36966;48.064;-0.792;2023-09-08T12:33:09;30.20;53.90
50955;DHT22;36966;48.064;-0.792;2023-09-08T12:35:34;30.20;53.90
50955;DHT22;36966;48.064;-0.792;2023-09-08T12:37:54;30.20;53.90
50955;DHT22;36966;48.064;-0.792;2023-09-08T12:40:16;30.30;53.70
50955;DHT22;36966;48.064;-0.792;2023-09-08T12:42:39;30.30;53.70
50955;DHT22;36966;48.064;-0.792;2023-09-08T12:44:58;30.20;53.70
50955;DHT22;36966;48.064;-0.792;2023-09-08T12:47:18;30.30;53.80
50955;DHT22;36966;48.064;-0.792;2023-09-08T12:49:37;30.30;53.70
50955;DHT22;36966;48.064;-0.792;2023-09-08T12:51:56;30.30;53.60
50955;DHT22;36966;48.064;-0.792;2023-09-08T12:54:15;30.30;53.50
50955;DHT22;36966;48.064;-0.792;2023-09-08T12:56:35;30.40;53.40
50955;DHT22;36966;48.064;-0.792;2023-09-08T12:58:54;30.40;53.30
50955;DHT22;36966;48.064;-0.792;2023-09-08T13:01:13;30.40;53.30
50955;DHT22;36966;48.064;-0.792;2023-09-08T13:03:33;30.50;53.30
50955;DHT22;36966;48.064;-0.792;2023-09-08T13:05:52;30.40;53.20
50955;DHT22;36966;48.064;-0.792;2023-09-08T13:08:11;30.50;53.10
50955;DHT22;36966;48.064;-0.792;2023-09-08T13:10:34;30.50;53.00
50955;DHT22;36966;48.064;-0.792;2023-09-08T13:12:53;30.50;53.00
50955;DHT22;36966;48.064;-0.792;2023-09-08T13:15:12;30.50;52.70
50955;DHT22;36966;48.064;-0.792;2023-09-08T13:17:31;30.50;53.00
50955;DHT22;36966;48.064;-0.792;2023-09-08T13:19:51;30.50;53.00
50955;DHT22;36966;48.064;-0.792;2023-09-08T13:22:10;30.60;53.10
50955;DHT22;36966;48.064;-0.792;2023-09-08T13:24:29;30.50;53.20
50955;DHT22;36966;48.064;-0.792;2023-09-08T13:26:48;30.60;52.80
50955;DHT22;36966;48.064;-0.792;2023-09-08T13:29:07;30.60;52.50
50955;DHT22;36966;48.064;-0.792;2023-09-08T13:31:27;30.60;52.90
50955;DHT22;36966;48.064;-0.792;2023-09-08T13:33:46;30.60;52.80
50955;DHT22;36966;48.064;-0.792;2023-09-08T13:36:05;30.60;52.90
50955;DHT22;36966;48.064;-0.792;2023-09-08T13:38:25;30.60;52.70
50955;DHT22;36966;48.064;-0.792;2023-09-08T13:40:45;30.50;52.60
50955;DHT22;36966;48.064;-0.792;2023-09-08T13:43:07;30.50;53.00
50955;DHT22;36966;48.064;-0.792;2023-09-08T13:45:26;30.50;53.30
50955;DHT22;36966;48.064;-0.792;2023-09-08T13:47:45;30.50;53.50
50955;DHT22;36966;48.064;-0.792;2023-09-08T13:50:05;30.40;53.50
50955;DHT22;36966;48.064;-0.792;2023-09-08T13:52:25;30.30;53.30
50955;DHT22;36966;48.064;-0.792;2023-09-08T13:54:45;30.30;53.30
50955;DHT22;36966;48.064;-0.792;2023-09-08T13:57:04;30.30;53.40
50955;DHT22;36966;48.064;-0.792;2023-09-08T13:59:23;30.30;53.40
50955;DHT22;36966;48.064;-0.792;2023-09-08T14:01:42;30.40;53.30
50955;DHT22;36966;48.064;-0.792;2023-09-08T14:04:02;30.30;53.30
50955;DHT22;36966;48.064;-0.792;2023-09-08T14:06:22;30.30;53.40
50955;DHT22;36966;48.064;-0.792;2023-09-08T14:08:41;30.30;53.50
50955;DHT22;36966;48.064;-0.792;2023-09-08T14:11:01;30.30;53.40
50955;DHT22;36966;48.064;-0.792;2023-09-08T14:13:20;30.30;53.30
50955;DHT22;36966;48.064;-0.792;2023-09-08T14:15:40;30.30;53.40
50955;DHT22;36966;48.064;-0.792;2023-09-08T14:17:59;30.30;53.30
50955;DHT22;36966;48.064;-0.792;2023-09-08T14:20:19;30.40;53.20
50955;DHT22;36966;48.064;-0.792;2023-09-08T14:22:38;30.40;53.10
50955;DHT22;36966;48.064;-0.792;2023-09-08T14:24:57;30.40;52.90
50955;DHT22;36966;48.064;-0.792;2023-09-08T14:27:16;30.50;53.00
50955;DHT22;36966;48.064;-0.792;2023-09-08T14:29:35;30.40;52.50
50955;DHT22;36966;48.064;-0.792;2023-09-08T14:31:55;30.50;52.50
50955;DHT22;36966;48.064;-0.792;2023-09-08T14:34:14;30.50;52.30
50955;DHT22;36966;48.064;-0.792;2023-09-08T14:36:34;30.50;52.00